sensor_id;sensor_type;location;lat;lon;timestamp;temperature;humidity
42905;DHT22;28550;51.228;4.528;2023-03-22T00:00:52;8.80;95.90
42905;DHT22;28550;51.228;4.528;2023-03-22T00:03:40;8.70;95.90
42905;DHT22;28550;51.228;4.528;2023-03-22T00:06:07;8.60;96.10
42905;DHT22;28550;51.228;4.528;2023-03-22T00:08:34;8.50;96.40
42905;DHT22;28550;51.228;4.528;2023-03-22T00:11:00;8.50;96.00
42905;DHT22;28550;51.228;4.528;2023-03-22T00:13:34;8.60;97.20
42905;DHT22;28550;51.228;4.528;2023-03-22T00:16:03;8.60;98.00
42905;DHT22;28550;51.228;4.528;2023-03-22T00:18:32;8.50;98.40
42905;DHT22;28550;51.228;4.528;2023-03-22T00:21:19;8.50;99.10
42905;DHT22;28550;51.228;4.528;2023-03-22T00:23:51;8.50;99.50
42905;DHT22;28550;51.228;4.528;2023-03-22T00:26:26;8.60;99.80
42905;DHT22;28550;51.228;4.528;2023-03-22T00:29:02;8.50;99.90
42905;DHT22;28550;51.228;4.528;2023-03-22T00:31:29;8.50;99.90
42905;DHT22;28550;51.228;4.528;2023-03-22T00:33:54;8.50;99.90
42905;DHT22;28550;51.228;4.528;2023-03-22T00:36:21;8.70;99.90
42905;DHT22;28550;51.228;4.528;2023-03-22T00:38:54;8.70;99.90
42905;DHT22;28550;51.228;4.528;2023-03-22T00:41:29;9.00;99.90
42905;DHT22;28550;51.228;4.528;2023-03-22T00:44:01;9.10;99.90
42905;DHT22;28550;51.228;4.528;2023-03-22T00:46:29;9.10;99.90
42905;DHT22;28550;51.228;4.528;2023-03-22T00:49:04;9.10;99.90
42905;DHT22;28550;51.228;4.528;2023-03-22T00:54:01;9.20;99.90
42905;DHT22;28550;51.228;4.528;2023-03-22T00:56:26;9.20;99.90
42905;DHT22;28550;51.228;4.528;2023-03-22T00:59:04;9.30;99.90
42905;DHT22;28550;51.228;4.528;2023-03-22T01:01:32;9.40;99.90
42905;DHT22;28550;51.228;4.528;2023-03-22T01:04:00;9.40;99.90
42905;DHT22;28550;51.228;4.528;2023-03-22T01:06:28;9.50;99.90
42905;DHT22;28550;51.228;4.528;2023-03-22T01:11:31;9.60;99.90
42905;DHT22;28550;51.228;4.528;2023-03-22T01:13:57;9.70;99.90
42905;DHT22;28550;51.228;4.528;2023-03-22T01:16:24;9.70;99.90
42905;DHT22;28550;51.228;4.528;2023-03-22T01:18:51;9.90;99.90
42905;DHT22;28550;51.228;4.528;2023-03-22T01:21:20;9.90;99.90
42905;DHT22;28550;51.228;4.528;2023-03-22T01:24:01;9.80;99.90
42905;DHT22;28550;51.228;4.528;2023-03-22T01:26:30;9.80;99.90
42905;DHT22;28550;51.228;4.528;2023-03-22T01:29:02;9.90;99.90
42905;DHT22;28550;51.228;4.528;2023-03-22T01:31:27;10.00;99.90
42905;DHT22;28550;51.228;4.528;2023-03-22T01:33:57;10.00;99.90
42905;DHT22;28550;51.228;4.528;2023-03-22T01:36:22;10.10;99.90
42905;DHT22;28550;51.228;4.528;2023-03-22T01:38:49;10.20;99.90
42905;DHT22;28550;51.228;4.528;2023-03-22T02:47:14;11.30;73.50
42905;DHT22;28550;51.228;4.528;2023-03-22T02:52:40;11.40;65.30
42905;DHT22;28550;51.228;4.528;2023-03-22T03:00:46;11.40;62.70
42905;DHT22;28550;51.228;4.528;2023-03-22T03:05:58;11.30;65.50
42905;DHT22;28550;51.228;4.528;2023-03-22T03:08:36;11.30;64.50
42905;DHT22;28550;51.228;4.528;2023-03-22T03:11:13;11.40;59.90
42905;DHT22;28550;51.228;4.528;2023-03-22T03:16:29;11.30;62.20
42905;DHT22;28550;51.228;4.528;2023-03-22T03:27:21;11.20;61.30
42905;DHT22;28550;51.228;4.528;2023-03-22T03:32:27;11.10;65.50
42905;DHT22;28550;51.228;4.528;2023-03-22T03:40:22;11.10;65.70
42905;DHT22;28550;51.228;4.528;2023-03-22T03:42:55;11.20;57.70
42905;DHT22;28550;51.228;4.528;2023-03-22T03:45:22;11.20;56.40
42905;DHT22;28550;51.228;4.528;2023-03-22T03:47:49;11.20;55.40
42905;DHT22;28550;51.228;4.528;2023-03-22T03:50:23;11.10;61.20
42905;DHT22;28550;51.228;4.528;2023-03-22T03:52:50;11.20;56.10
42905;DHT22;28550;51.228;4.528;2023-03-22T03:55:19;11.10;56.30
42905;DHT22;28550;51.228;4.528;2023-03-22T04:03:52;11.10;56.10
42905;DHT22;28550;51.228;4.528;2023-03-22T04:06:26;11.10;51.10
42905;DHT22;28550;51.228;4.528;2023-03-22T04:09:04;11.10;52.00
42905;DHT22;28550;51.228;4.528;2023-03-22T04:20:03;11.10;48.20
42905;DHT22;28550;51.228;4.528;2023-03-22T04:22:29;11.10;45.00
42905;DHT22;28550;51.228;4.528;2023-03-22T04:24:59;11.10;46.50
42905;DHT22;28550;51.228;4.528;2023-03-22T04:27:26;11.00;47.90
42905;DHT22;28550;51.228;4.528;2023-03-22T04:29:53;11.10;45.90
42905;DHT22;28550;51.228;4.528;2023-03-22T04:32:19;11.10;35.80
42905;DHT22;28550;51.228;4.528;2023-03-22T04:34:48;11.10;36.40
42905;DHT22;28550;51.228;4.528;2023-03-22T04:37:38;11.10;35.10
42905;DHT22;28550;51.228;4.528;2023-03-22T04:40:08;11.10;35.80
42905;DHT22;28550;51.228;4.528;2023-03-22T04:42:34;11.10;31.70
42905;DHT22;28550;51.228;4.528;2023-03-22T04:50:32;11.10;28.30
42905;DHT22;28550;51.228;4.528;2023-03-22T04:53:00;11.00;26.20
42905;DHT22;28550;51.228;4.528;2023-03-22T04:55:45;11.00;29.00
42905;DHT22;28550;51.228;4.528;2023-03-22T05:27:29;11.00;19.60
42905;DHT22;28550;51.228;4.528;2023-03-22T05:33:04;11.00;20.70
42905;DHT22;28550;51.228;4.528;2023-03-22T05:58:57;11.00;18.80
42905;DHT22;28550;51.228;4.528;2023-03-22T06:01:23;10.90;13.10
42905;DHT22;28550;51.228;4.528;2023-03-22T06:04:13;11.00;20.70
42905;DHT22;28550;51.228;4.528;2023-03-22T06:06:43;11.00;17.60
42905;DHT22;28550;51.228;4.528;2023-03-22T06:09:11;11.10;14.50
42905;DHT22;28550;51.228;4.528;2023-03-22T06:11:39;11.10;15.70
42905;DHT22;28550;51.228;4.528;2023-03-22T06:14:05;11.10;20.40
42905;DHT22;28550;51.228;4.528;2023-03-22T06:16:31;11.00;24.50
42905;DHT22;28550;51.228;4.528;2023-03-22T06:18:56;11.00;23.60
42905;DHT22;28550;51.228;4.528;2023-03-22T06:21:24;10.90;29.50
42905;DHT22;28550;51.228;4.528;2023-03-22T06:23:52;10.90;33.30
42905;DHT22;28550;51.228;4.528;2023-03-22T06:26:19;10.90;30.10
42905;DHT22;28550;51.228;4.528;2023-03-22T06:28:46;11.00;28.90
42905;DHT22;28550;51.228;4.528;2023-03-22T06:31:16;10.90;25.40
42905;DHT22;28550;51.228;4.528;2023-03-22T06:33:47;10.90;21.60
42905;DHT22;28550;51.228;4.528;2023-03-22T06:36:14;11.00;22.00
42905;DHT22;28550;51.228;4.528;2023-03-22T06:38:43;10.90;25.20
42905;DHT22;28550;51.228;4.528;2023-03-22T06:41:10;11.00;19.30
42905;DHT22;28550;51.228;4.528;2023-03-22T06:43:36;11.00;14.40
42905;DHT22;28550;51.228;4.528;2023-03-22T06:46:02;11.00;12.10
42905;DHT22;28550;51.228;4.528;2023-03-22T06:48:34;11.10;11.20
42905;DHT22;28550;51.228;4.528;2023-03-22T06:51:00;11.20;1.00
42905;DHT22;28550;51.228;4.528;2023-03-22T06:53:27;11.20;1.00
42905;DHT22;28550;51.228;4.528;2023-03-22T06:55:56;11.40;1.00
42905;DHT22;28550;51.228;4.528;2023-03-22T06:58:23;11.40;1.00
42905;DHT22;28550;51.228;4.528;2023-03-22T07:03:52;11.40;1.00
42905;DHT22;28550;51.228;4.528;2023-03-22T07:06:22;11.40;1.00
42905;DHT22;28550;51.228;4.528;2023-03-22T07:08:50;11.50;1.00
42905;DHT22;28550;51.228;4.528;2023-03-22T07:11:16;11.60;1.00
42905;DHT22;28550;51.228;4.528;2023-03-22T07:16:45;11.70;1.00
42905;DHT22;28550;51.228;4.528;2023-03-22T07:19:13;11.80;1.00
42905;DHT22;28550;51.228;4.528;2023-03-22T07:21:47;12.00;1.00
42905;DHT22;28550;51.228;4.528;2023-03-22T07:27:17;12.20;1.00
42905;DHT22;28550;51.228;4.528;2023-03-22T07:38:02;12.50;99.90
42905;DHT22;28550;51.228;4.528;2023-03-22T07:40:41;12.50;99.90
42905;DHT22;28550;51.228;4.528;2023-03-22T07:46:33;12.40;99.90
42905;DHT22;28550;51.228;4.528;2023-03-22T07:54:58;12.60;99.90
42905;DHT22;28550;51.228;4.528;2023-03-22T07:57:31;12.70;99.90
42905;DHT22;28550;51.228;4.528;2023-03-22T08:00:10;12.90;99.90
42905;DHT22;28550;51.228;4.528;2023-03-22T08:05:10;13.20;90.20
42905;DHT22;28550;51.228;4.528;2023-03-22T08:10:39;13.10;99.90
42905;DHT22;28550;51.228;4.528;2023-03-22T08:13:20;13.20;24.40
42905;DHT22;28550;51.228;4.528;2023-03-22T08:15:55;13.20;1.00
42905;DHT22;28550;51.228;4.528;2023-03-22T08:18:30;13.10;17.30
42905;DHT22;28550;51.228;4.528;2023-03-22T08:20:57;13.10;7.20
42905;DHT22;28550;51.228;4.528;2023-03-22T08:23:24;13.00;88.40
42905;DHT22;28550;51.228;4.528;2023-03-22T08:25:53;12.80;99.90
42905;DHT22;28550;51.228;4.528;2023-03-22T08:28:22;12.80;99.90
42905;DHT22;28550;51.228;4.528;2023-03-22T08:30:48;12.70;99.90
42905;DHT22;28550;51.228;4.528;2023-03-22T08:33:21;12.70;1.00
42905;DHT22;28550;51.228;4.528;2023-03-22T08:35:50;12.70;99.90
42905;DHT22;28550;51.228;4.528;2023-03-22T08:38:28;12.70;99.90
42905;DHT22;28550;51.228;4.528;2023-03-22T08:40:54;12.80;99.90
42905;DHT22;28550;51.228;4.528;2023-03-22T08:43:20;12.80;99.90
42905;DHT22;28550;51.228;4.528;2023-03-22T08:45:46;12.80;99.90
42905;DHT22;28550;51.228;4.528;2023-03-22T08:48:14;12.70;99.90
42905;DHT22;28550;51.228;4.528;2023-03-22T08:50:49;12.50;99.90
42905;DHT22;28550;51.228;4.528;2023-03-22T08:53:16;12.60;99.90
42905;DHT22;28550;51.228;4.528;2023-03-22T08:55:48;12.70;99.90
42905;DHT22;28550;51.228;4.528;2023-03-22T08:58:22;12.60;99.90
42905;DHT22;28550;51.228;4.528;2023-03-22T09:00:48;12.50;99.90
42905;DHT22;28550;51.228;4.528;2023-03-22T09:03:24;12.50;1.00
42905;DHT22;28550;51.228;4.528;2023-03-22T09:05:49;12.60;99.90
42905;DHT22;28550;51.228;4.528;2023-03-22T09:10:48;12.70;99.90
42905;DHT22;28550;51.228;4.528;2023-03-22T09:18:48;12.80;99.90
42905;DHT22;28550;51.228;4.528;2023-03-22T09:21:14;13.00;99.90
42905;DHT22;28550;51.228;4.528;2023-03-22T09:23:46;13.20;99.90
42905;DHT22;28550;51.228;4.528;2023-03-22T09:26:15;13.30;99.90
42905;DHT22;28550;51.228;4.528;2023-03-22T09:28:42;13.10;99.90
42905;DHT22;28550;51.228;4.528;2023-03-22T09:31:09;13.00;99.90
42905;DHT22;28550;51.228;4.528;2023-03-22T09:33:35;12.90;99.90
42905;DHT22;28550;51.228;4.528;2023-03-22T09:36:02;12.80;99.90
42905;DHT22;28550;51.228;4.528;2023-03-22T09:38:27;12.80;99.90
42905;DHT22;28550;51.228;4.528;2023-03-22T09:43:54;12.70;99.90
42905;DHT22;28550;51.228;4.528;2023-03-22T09:46:35;12.70;1.00
42905;DHT22;28550;51.228;4.528;2023-03-22T09:49:27;12.60;1.00
42905;DHT22;28550;51.228;4.528;2023-03-22T09:54:39;12.20;1.00
42905;DHT22;28550;51.228;4.528;2023-03-22T10:00:05;11.90;1.00
42905;DHT22;28550;51.228;4.528;2023-03-22T10:05:28;12.10;1.00
42905;DHT22;28550;51.228;4.528;2023-03-22T10:13:55;12.40;1.00
42905;DHT22;28550;51.228;4.528;2023-03-22T10:16:29;12.40;1.00
42905;DHT22;28550;51.228;4.528;2023-03-22T10:19:12;12.20;1.00
42905;DHT22;28550;51.228;4.528;2023-03-22T10:21:44;12.10;15.00
42905;DHT22;28550;51.228;4.528;2023-03-22T10:24:26;12.00;23.10
42905;DHT22;28550;51.228;4.528;2023-03-22T10:35:14;12.00;29.30
42905;DHT22;28550;51.228;4.528;2023-03-22T10:37:40;11.80;24.90
42905;DHT22;28550;51.228;4.528;2023-03-22T10:40:16;11.80;45.60
42905;DHT22;28550;51.228;4.528;2023-03-22T10:42:43;12.00;44.20
42905;DHT22;28550;51.228;4.528;2023-03-22T10:45:13;12.10;43.20
42905;DHT22;28550;51.228;4.528;2023-03-22T10:47:44;12.10;37.20
42905;DHT22;28550;51.228;4.528;2023-03-22T10:50:17;12.00;37.40
42905;DHT22;28550;51.228;4.528;2023-03-22T10:52:48;12.00;44.30
42905;DHT22;28550;51.228;4.528;2023-03-22T10:55:16;12.00;50.40
42905;DHT22;28550;51.228;4.528;2023-03-22T10:57:50;11.90;42.50
42905;DHT22;28550;51.228;4.528;2023-03-22T11:00:19;11.90;54.80
42905;DHT22;28550;51.228;4.528;2023-03-22T11:02:52;12.00;49.50
42905;DHT22;28550;51.228;4.528;2023-03-22T11:05:24;12.00;44.30
42905;DHT22;28550;51.228;4.528;2023-03-22T11:07:51;12.00;40.40
42905;DHT22;28550;51.228;4.528;2023-03-22T11:10:27;12.00;53.80
42905;DHT22;28550;51.228;4.528;2023-03-22T11:15:29;12.10;36.00
42905;DHT22;28550;51.228;4.528;2023-03-22T11:17:57;12.10;35.40
42905;DHT22;28550;51.228;4.528;2023-03-22T11:20:26;12.30;28.80
42905;DHT22;28550;51.228;4.528;2023-03-22T11:22:52;12.50;17.90
42905;DHT22;28550;51.228;4.528;2023-03-22T11:28:26;12.70;1.00
42905;DHT22;28550;51.228;4.528;2023-03-22T11:31:09;12.70;1.00
42905;DHT22;28550;51.228;4.528;2023-03-22T11:34:13;12.70;1.00
42905;DHT22;28550;51.228;4.528;2023-03-22T11:36:28;12.70;1.00
42905;DHT22;28550;51.228;4.528;2023-03-22T11:39:02;12.90;1.00
42905;DHT22;28550;51.228;4.528;2023-03-22T11:41:33;13.00;1.00
42905;DHT22;28550;51.228;4.528;2023-03-22T11:44:00;13.20;1.00
42905;DHT22;28550;51.228;4.528;2023-03-22T11:46:27;13.20;1.00
42905;DHT22;28550;51.228;4.528;2023-03-22T11:48:57;13.20;1.00
42905;DHT22;28550;51.228;4.528;2023-03-22T11:51:28;13.20;1.00
42905;DHT22;28550;51.228;4.528;2023-03-22T11:54:15;13.20;1.00
42905;DHT22;28550;51.228;4.528;2023-03-22T11:57:03;13.30;1.00
42905;DHT22;28550;51.228;4.528;2023-03-22T11:59:37;13.40;1.00
42905;DHT22;28550;51.228;4.528;2023-03-22T12:02:17;13.40;1.00
42905;DHT22;28550;51.228;4.528;2023-03-22T12:04:50;13.30;1.00
42905;DHT22;28550;51.228;4.528;2023-03-22T12:18:43;13.20;1.00
42905;DHT22;28550;51.228;4.528;2023-03-22T12:21:12;13.20;1.00
42905;DHT22;28550;51.228;4.528;2023-03-22T12:23:47;13.20;1.00
42905;DHT22;28550;51.228;4.528;2023-03-22T12:29:16;13.10;1.00
42905;DHT22;28550;51.228;4.528;2023-03-22T12:34:57;13.00;1.00
42905;DHT22;28550;51.228;4.528;2023-03-22T12:40:30;12.90;1.00
42905;DHT22;28550;51.228;4.528;2023-03-22T13:01:28;13.30;1.00
42905;DHT22;28550;51.228;4.528;2023-03-22T13:03:58;13.20;1.00
42905;DHT22;28550;51.228;4.528;2023-03-22T13:11:41;13.20;1.00
42905;DHT22;28550;51.228;4.528;2023-03-22T13:14:10;13.20;1.00
42905;DHT22;28550;51.228;4.528;2023-03-22T13:17:09;13.20;1.00
42905;DHT22;28550;51.228;4.528;2023-03-22T13:19:36;13.20;1.00
42905;DHT22;28550;51.228;4.528;2023-03-22T13:22:15;13.20;1.00
42905;DHT22;28550;51.228;4.528;2023-03-22T13:27:40;13.20;1.00
42905;DHT22;28550;51.228;4.528;2023-03-22T13:30:21;13.30;1.00
42905;DHT22;28550;51.228;4.528;2023-03-22T13:32:49;13.30;1.00
42905;DHT22;28550;51.228;4.528;2023-03-22T13:35:20;13.20;1.00
42905;DHT22;28550;51.228;4.528;2023-03-22T13:37:49;13.10;2.20
42905;DHT22;28550;51.228;4.528;2023-03-22T13:46:09;13.20;12.90
42905;DHT22;28550;51.228;4.528;2023-03-22T13:51:18;13.40;1.00
42905;DHT22;28550;51.228;4.528;2023-03-22T14:02:01;13.30;11.20
42905;DHT22;28550;51.228;4.528;2023-03-22T14:04:40;13.30;22.80
42905;DHT22;28550;51.228;4.528;2023-03-22T14:09:47;13.00;41.70
42905;DHT22;28550;51.228;4.528;2023-03-22T14:12:18;13.00;42.90
42905;DHT22;28550;51.228;4.528;2023-03-22T14:14:46;12.90;45.50
42905;DHT22;28550;51.228;4.528;2023-03-22T14:20:02;13.00;50.20
42905;DHT22;28550;51.228;4.528;2023-03-22T14:25:14;13.00;49.70
42905;DHT22;28550;51.228;4.528;2023-03-22T14:30:47;13.10;53.40
42905;DHT22;28550;51.228;4.528;2023-03-22T14:33:19;13.10;49.60
42905;DHT22;28550;51.228;4.528;2023-03-22T14:35:58;13.20;51.10
42905;DHT22;28550;51.228;4.528;2023-03-22T14:38:30;13.10;45.00
42905;DHT22;28550;51.228;4.528;2023-03-22T14:41:19;13.20;44.50
42905;DHT22;28550;51.228;4.528;2023-03-22T14:43:59;13.20;45.90
42905;DHT22;28550;51.228;4.528;2023-03-22T14:46:36;13.30;45.00
42905;DHT22;28550;51.228;4.528;2023-03-22T14:49:12;13.40;39.60
42905;DHT22;28550;51.228;4.528;2023-03-22T14:51:40;13.20;52.00
42905;DHT22;28550;51.228;4.528;2023-03-22T14:54:14;13.20;51.80
42905;DHT22;28550;51.228;4.528;2023-03-22T14:56:40;13.00;68.00
42905;DHT22;28550;51.228;4.528;2023-03-22T14:59:10;13.10;62.70
42905;DHT22;28550;51.228;4.528;2023-03-22T15:02:00;13.00;64.30
42905;DHT22;28550;51.228;4.528;2023-03-22T15:04:26;12.90;76.00
42905;DHT22;28550;51.228;4.528;2023-03-22T15:06:57;12.90;80.70
42905;DHT22;28550;51.228;4.528;2023-03-22T15:09:24;12.90;87.20
42905;DHT22;28550;51.228;4.528;2023-03-22T15:12:05;12.70;94.50
42905;DHT22;28550;51.228;4.528;2023-03-22T15:14:40;12.70;96.00
42905;DHT22;28550;51.228;4.528;2023-03-22T15:17:07;12.50;99.90
42905;DHT22;28550;51.228;4.528;2023-03-22T15:19:47;12.40;99.90
42905;DHT22;28550;51.228;4.528;2023-03-22T15:22:19;12.40;99.90
42905;DHT22;28550;51.228;4.528;2023-03-22T15:25:12;12.40;99.90
42905;DHT22;28550;51.228;4.528;2023-03-22T15:27:44;12.30;99.90
42905;DHT22;28550;51.228;4.528;2023-03-22T15:30:16;12.20;99.90
42905;DHT22;28550;51.228;4.528;2023-03-22T15:32:42;12.20;99.90
42905;DHT22;28550;51.228;4.528;2023-03-22T15:35:13;12.20;99.90
42905;DHT22;28550;51.228;4.528;2023-03-22T15:37:45;12.20;99.90
42905;DHT22;28550;51.228;4.528;2023-03-22T15:43:32;12.10;99.90
42905;DHT22;28550;51.228;4.528;2023-03-22T15:46:12;12.00;99.90
42905;DHT22;28550;51.228;4.528;2023-03-22T15:49:00;12.00;99.90
42905;DHT22;28550;51.228;4.528;2023-03-22T15:51:39;12.00;99.90
42905;DHT22;28550;51.228;4.528;2023-03-22T15:57:08;11.90;99.90
42905;DHT22;28550;51.228;4.528;2023-03-22T15:59:46;11.90;99.90
42905;DHT22;28550;51.228;4.528;2023-03-22T16:02:23;11.90;99.90
42905;DHT22;28550;51.228;4.528;2023-03-22T16:04:55;11.80;99.90
42905;DHT22;28550;51.228;4.528;2023-03-22T16:07:28;11.90;99.90
42905;DHT22;28550;51.228;4.528;2023-03-22T16:09:55;11.80;99.90
42905;DHT22;28550;51.228;4.528;2023-03-22T16:12:22;11.70;99.90
42905;DHT22;28550;51.228;4.528;2023-03-22T16:14:50;11.70;99.90
42905;DHT22;28550;51.228;4.528;2023-03-22T16:17:21;11.70;99.90
42905;DHT22;28550;51.228;4.528;2023-03-22T16:22:18;11.60;99.90
42905;DHT22;28550;51.228;4.528;2023-03-22T16:24:46;11.70;99.90
42905;DHT22;28550;51.228;4.528;2023-03-22T16:27:22;11.70;99.90
42905;DHT22;28550;51.228;4.528;2023-03-22T16:29:48;11.70;99.90
42905;DHT22;28550;51.228;4.528;2023-03-22T16:32:27;11.70;99.90
42905;DHT22;28550;51.228;4.528;2023-03-22T16:37:49;11.80;99.90
42905;DHT22;28550;51.228;4.528;2023-03-22T16:42:59;11.70;99.90
42905;DHT22;28550;51.228;4.528;2023-03-22T16:45:32;11.70;99.90
42905;DHT22;28550;51.228;4.528;2023-03-22T16:47:58;11.70;99.90
42905;DHT22;28550;51.228;4.528;2023-03-22T16:50:26;11.70;99.90
42905;DHT22;28550;51.228;4.528;2023-03-22T16:52:53;11.70;99.90
42905;DHT22;28550;51.228;4.528;2023-03-22T16:55:29;11.70;99.90
42905;DHT22;28550;51.228;4.528;2023-03-22T16:57:55;11.80;99.90
42905;DHT22;28550;51.228;4.528;2023-03-22T17:00:22;11.70;99.90
42905;DHT22;28550;51.228;4.528;2023-03-22T17:02:53;11.80;99.90
42905;DHT22;28550;51.228;4.528;2023-03-22T17:05:22;11.80;99.90
42905;DHT22;28550;51.228;4.528;2023-03-22T17:07:50;11.80;99.90
42905;DHT22;28550;51.228;4.528;2023-03-22T17:10:16;11.90;99.90
42905;DHT22;28550;51.228;4.528;2023-03-22T17:15:33;11.80;99.90
42905;DHT22;28550;51.228;4.528;2023-03-22T17:18:04;11.90;99.90
42905;DHT22;28550;51.228;4.528;2023-03-22T17:20:30;11.80;99.90
42905;DHT22;28550;51.228;4.528;2023-03-22T17:22:56;11.80;99.90
42905;DHT22;28550;51.228;4.528;2023-03-22T17:25:23;11.80;99.90
42905;DHT22;28550;51.228;4.528;2023-03-22T17:27:49;11.90;99.90
42905;DHT22;28550;51.228;4.528;2023-03-22T17:30:15;11.90;99.90
42905;DHT22;28550;51.228;4.528;2023-03-22T17:32:40;11.90;99.90
42905;DHT22;28550;51.228;4.528;2023-03-22T17:35:13;11.90;99.90
42905;DHT22;28550;51.228;4.528;2023-03-22T17:37:39;11.90;99.90
42905;DHT22;28550;51.228;4.528;2023-03-22T17:40:08;11.90;99.90
42905;DHT22;28550;51.228;4.528;2023-03-22T17:42:34;11.90;99.90
42905;DHT22;28550;51.228;4.528;2023-03-22T17:45:02;11.90;99.90
42905;DHT22;28550;51.228;4.528;2023-03-22T17:47:28;12.00;99.90
42905;DHT22;28550;51.228;4.528;2023-03-22T17:49:54;12.00;99.90
42905;DHT22;28550;51.228;4.528;2023-03-22T17:52:24;11.90;99.90
42905;DHT22;28550;51.228;4.528;2023-03-22T17:54:51;11.90;99.90
42905;DHT22;28550;51.228;4.528;2023-03-22T17:57:17;12.00;99.90
42905;DHT22;28550;51.228;4.528;2023-03-22T17:59:48;12.10;99.90
42905;DHT22;28550;51.228;4.528;2023-03-22T18:02:17;12.00;99.90
42905;DHT22;28550;51.228;4.528;2023-03-22T18:04:52;12.10;99.90
42905;DHT22;28550;51.228;4.528;2023-03-22T18:07:18;12.10;99.90
42905;DHT22;28550;51.228;4.528;2023-03-22T18:09:45;12.10;99.90
42905;DHT22;28550;51.228;4.528;2023-03-22T18:12:11;12.10;99.90
42905;DHT22;28550;51.228;4.528;2023-03-22T18:14:40;12.20;99.90
42905;DHT22;28550;51.228;4.528;2023-03-22T18:17:05;12.10;99.90
42905;DHT22;28550;51.228;4.528;2023-03-22T18:19:31;12.20;99.90
42905;DHT22;28550;51.228;4.528;2023-03-22T18:21:58;12.20;99.30
42905;DHT22;28550;51.228;4.528;2023-03-22T18:24:23;12.30;99.90
42905;DHT22;28550;51.228;4.528;2023-03-22T18:29:55;12.30;98.80
42905;DHT22;28550;51.228;4.528;2023-03-22T18:32:21;12.30;98.70
42905;DHT22;28550;51.228;4.528;2023-03-22T18:34:47;12.30;99.00
42905;DHT22;28550;51.228;4.528;2023-03-22T18:37:12;12.30;99.20
42905;DHT22;28550;51.228;4.528;2023-03-22T18:39:39;12.30;98.10
42905;DHT22;28550;51.228;4.528;2023-03-22T18:42:06;12.30;99.60
42905;DHT22;28550;51.228;4.528;2023-03-22T18:44:32;12.20;99.90
42905;DHT22;28550;51.228;4.528;2023-03-22T18:47:12;12.10;99.90
42905;DHT22;28550;51.228;4.528;2023-03-22T18:49:41;12.20;99.90
42905;DHT22;28550;51.228;4.528;2023-03-22T18:52:07;12.10;99.90
42905;DHT22;28550;51.228;4.528;2023-03-22T18:54:33;12.20;99.00
42905;DHT22;28550;51.228;4.528;2023-03-22T18:57:01;12.20;98.60
42905;DHT22;28550;51.228;4.528;2023-03-22T18:59:32;12.20;99.90
42905;DHT22;28550;51.228;4.528;2023-03-22T19:01:58;12.30;99.40
42905;DHT22;28550;51.228;4.528;2023-03-22T19:04:24;12.30;99.90
42905;DHT22;28550;51.228;4.528;2023-03-22T19:06:53;12.30;99.70
42905;DHT22;28550;51.228;4.528;2023-03-22T19:09:32;12.20;99.90
42905;DHT22;28550;51.228;4.528;2023-03-22T19:14:33;12.20;99.90
42905;DHT22;28550;51.228;4.528;2023-03-22T19:16:59;12.20;99.90
42905;DHT22;28550;51.228;4.528;2023-03-22T19:19:25;12.10;99.90
42905;DHT22;28550;51.228;4.528;2023-03-22T19:27:21;12.00;99.90
42905;DHT22;28550;51.228;4.528;2023-03-22T19:29:47;12.00;99.90
42905;DHT22;28550;51.228;4.528;2023-03-22T19:32:16;12.00;99.90
42905;DHT22;28550;51.228;4.528;2023-03-22T19:34:43;12.00;99.90
42905;DHT22;28550;51.228;4.528;2023-03-22T19:37:09;12.10;99.90
42905;DHT22;28550;51.228;4.528;2023-03-22T19:39:35;12.20;99.90
42905;DHT22;28550;51.228;4.528;2023-03-22T19:42:01;12.20;99.90
42905;DHT22;28550;51.228;4.528;2023-03-22T19:44:28;12.10;99.90
42905;DHT22;28550;51.228;4.528;2023-03-22T19:46:54;12.20;99.90
42905;DHT22;28550;51.228;4.528;2023-03-22T19:49:22;12.20;99.90
42905;DHT22;28550;51.228;4.528;2023-03-22T19:51:49;12.20;99.90
42905;DHT22;28550;51.228;4.528;2023-03-22T19:54:25;12.10;99.90
42905;DHT22;28550;51.228;4.528;2023-03-22T19:57:06;12.10;99.90
42905;DHT22;28550;51.228;4.528;2023-03-22T19:59:33;12.10;99.90
42905;DHT22;28550;51.228;4.528;2023-03-22T20:02:09;12.10;99.90
42905;DHT22;28550;51.228;4.528;2023-03-22T20:04:41;12.10;99.90
42905;DHT22;28550;51.228;4.528;2023-03-22T20:07:15;12.10;99.90
42905;DHT22;28550;51.228;4.528;2023-03-22T20:09:47;12.10;99.90
42905;DHT22;28550;51.228;4.528;2023-03-22T20:12:13;12.20;99.90
42905;DHT22;28550;51.228;4.528;2023-03-22T20:14:41;12.20;99.90
42905;DHT22;28550;51.228;4.528;2023-03-22T20:17:14;12.20;99.90
42905;DHT22;28550;51.228;4.528;2023-03-22T20:19:39;12.10;99.90
42905;DHT22;28550;51.228;4.528;2023-03-22T20:22:06;12.20;99.90
42905;DHT22;28550;51.228;4.528;2023-03-22T20:24:31;12.20;99.90
42905;DHT22;28550;51.228;4.528;2023-03-22T20:26:57;12.10;99.50
42905;DHT22;28550;51.228;4.528;2023-03-22T20:29:23;12.10;99.60
42905;DHT22;28550;51.228;4.528;2023-03-22T20:31:49;12.10;99.70
42905;DHT22;28550;51.228;4.528;2023-03-22T20:34:15;12.10;99.90
42905;DHT22;28550;51.228;4.528;2023-03-22T20:36:41;12.10;99.20
42905;DHT22;28550;51.228;4.528;2023-03-22T20:39:07;12.20;97.90
42905;DHT22;28550;51.228;4.528;2023-03-22T20:41:33;12.20;96.90
42905;DHT22;28550;51.228;4.528;2023-03-22T20:43:59;12.20;98.50
42905;DHT22;28550;51.228;4.528;2023-03-22T20:46:26;12.30;97.60
42905;DHT22;28550;51.228;4.528;2023-03-22T20:48:52;12.30;96.10
42905;DHT22;28550;51.228;4.528;2023-03-22T20:51:18;12.30;96.20
42905;DHT22;28550;51.228;4.528;2023-03-22T20:53:44;12.30;95.60
42905;DHT22;28550;51.228;4.528;2023-03-22T20:56:10;12.40;93.00
42905;DHT22;28550;51.228;4.528;2023-03-22T20:58:36;12.50;90.60
42905;DHT22;28550;51.228;4.528;2023-03-22T21:01:05;12.50;89.00
42905;DHT22;28550;51.228;4.528;2023-03-22T21:03:33;12.50;89.10
42905;DHT22;28550;51.228;4.528;2023-03-22T21:06:07;12.60;87.90
42905;DHT22;28550;51.228;4.528;2023-03-22T21:08:33;12.70;81.30
42905;DHT22;28550;51.228;4.528;2023-03-22T21:11:07;12.70;80.40
42905;DHT22;28550;51.228;4.528;2023-03-22T21:13:34;12.60;82.70
42905;DHT22;28550;51.228;4.528;2023-03-22T21:16:00;12.70;77.30
42905;DHT22;28550;51.228;4.528;2023-03-22T21:18:26;12.80;70.00
42905;DHT22;28550;51.228;4.528;2023-03-22T21:20:52;12.80;70.40
42905;DHT22;28550;51.228;4.528;2023-03-22T21:23:25;12.90;64.70
42905;DHT22;28550;51.228;4.528;2023-03-22T21:25:54;12.90;61.00
42905;DHT22;28550;51.228;4.528;2023-03-22T21:28:20;12.90;57.30
42905;DHT22;28550;51.228;4.528;2023-03-22T21:30:55;12.90;59.20
42905;DHT22;28550;51.228;4.528;2023-03-22T21:33:21;12.90;57.90
42905;DHT22;28550;51.228;4.528;2023-03-22T21:35:53;12.90;53.00
42905;DHT22;28550;51.228;4.528;2023-03-22T21:38:19;13.00;51.70
42905;DHT22;28550;51.228;4.528;2023-03-22T21:40:56;13.00;50.90
42905;DHT22;28550;51.228;4.528;2023-03-22T21:43:23;12.90;53.20
42905;DHT22;28550;51.228;4.528;2023-03-22T21:45:52;12.90;52.60